createdAt,value
2023-05-14T00:01:08.571Z,5.03
2023-05-14T00:03:37.476Z,5.37
2023-05-14T00:06:05.901Z,5.03
2023-05-14T00:08:35.708Z,5.37
2023-05-14T00:11:03.894Z,5.00
2023-05-14T00:13:32.296Z,5.20
2023-05-14T00:16:00.490Z,5.60
2023-05-14T00:18:28.804Z,5.50
2023-05-14T00:20:56.981Z,5.97
2023-05-14T00:23:25.455Z,5.67
2023-05-14T00:25:54.959Z,5.40
2023-05-14T00:28:23.127Z,6.03
2023-05-14T00:30:51.305Z,6.23
2023-05-14T00:33:19.466Z,5.87
2023-05-14T00:35:47.608Z,6.20
2023-05-14T00:38:19.265Z,6.03
2023-05-14T00:40:51.309Z,5.87
2023-05-14T00:43:22.483Z,6.37
2023-05-14T00:45:51.734Z,6.40
2023-05-14T00:48:20.051Z,5.73
2023-05-14T00:50:48.342Z,5.83
2023-05-14T00:53:16.503Z,6.13
2023-05-14T00:55:44.675Z,6.40
2023-05-14T00:58:13.597Z,6.30
2023-05-14T01:00:43.582Z,6.23
2023-05-14T01:03:11.984Z,6.60
2023-05-14T01:05:43.177Z,6.20
2023-05-14T01:08:14.917Z,6.80
2023-05-14T01:10:47.150Z,6.33
2023-05-14T01:13:20.882Z,6.53
2023-05-14T01:15:51.012Z,6.67
2023-05-14T01:18:20.079Z,6.30
2023-05-14T01:20:52.115Z,6.80
2023-05-14T01:23:22.033Z,6.23
2023-05-14T01:25:50.230Z,6.43
2023-05-14T01:28:19.784Z,6.57
2023-05-14T01:30:51.034Z,6.87
2023-05-14T01:33:20.885Z,7.20
2023-05-14T01:35:49.183Z,6.63
2023-05-14T01:38:19.555Z,6.43
2023-05-14T01:40:49.279Z,6.87
2023-05-14T01:43:17.904Z,6.70
2023-05-14T01:45:46.221Z,6.67
2023-05-14T01:48:14.467Z,6.60
2023-05-14T01:50:42.884Z,6.60
2023-05-14T01:53:11.055Z,7.27
2023-05-14T01:55:39.206Z,6.37
2023-05-14T01:58:08.694Z,7.07
2023-05-14T02:00:36.847Z,8.07
2023-05-14T02:03:05.101Z,7.10
2023-05-14T02:05:33.320Z,7.23
2023-05-14T02:08:01.466Z,6.83
2023-05-14T02:10:29.629Z,7.53
2023-05-14T02:12:57.804Z,7.23
2023-05-14T02:15:27.294Z,7.27
2023-05-14T02:17:55.460Z,7.70
2023-05-14T02:20:23.814Z,8.00
2023-05-14T02:22:52.125Z,7.10
2023-05-14T02:25:20.298Z,7.97
2023-05-14T02:27:49.421Z,7.90
2023-05-14T02:30:17.866Z,8.47
2023-05-14T02:32:47.449Z,8.27
2023-05-14T02:35:15.706Z,8.27
2023-05-14T02:37:43.894Z,8.97
2023-05-14T02:40:12.522Z,7.37
2023-05-14T02:42:40.693Z,7.77
2023-05-14T02:45:09.139Z,8.40
2023-05-14T02:47:38.253Z,8.33
2023-05-14T02:50:08.807Z,7.80
2023-05-14T02:52:37.127Z,8.30
2023-05-14T02:55:05.516Z,8.40
2023-05-14T02:57:33.675Z,7.73
2023-05-14T03:00:01.840Z,7.87
2023-05-14T03:02:30.509Z,8.03
2023-05-14T03:04:59.220Z,8.53
2023-05-14T03:07:28.719Z,7.93
2023-05-14T03:09:56.882Z,8.23
2023-05-14T03:12:25.062Z,8.17
2023-05-14T03:14:53.207Z,7.73
2023-05-14T03:17:21.410Z,8.37
2023-05-14T03:19:49.593Z,8.20
2023-05-14T03:22:17.804Z,7.53
2023-05-14T03:24:47.308Z,7.77
2023-05-14T03:27:15.512Z,8.53
2023-05-14T03:29:43.657Z,8.27
2023-05-14T03:32:11.820Z,8.10
2023-05-14T03:34:40.097Z,8.30
2023-05-14T03:37:08.283Z,8.10
2023-05-14T03:39:36.570Z,9.17
2023-05-14T03:42:06.511Z,7.97
2023-05-14T03:44:34.680Z,9.00
2023-05-14T03:47:02.842Z,8.13
2023-05-14T03:49:31.044Z,8.03
2023-05-14T03:51:59.372Z,8.30
2023-05-14T03:54:27.536Z,8.63
2023-05-14T03:56:55.691Z,9.30
2023-05-14T03:59:25.599Z,7.63
2023-05-14T04:01:53.742Z,8.23
2023-05-14T04:04:21.960Z,9.00
2023-05-14T04:06:50.138Z,8.60
2023-05-14T04:09:18.598Z,8.77
2023-05-14T04:11:46.761Z,8.80
2023-05-14T04:14:14.939Z,8.97
2023-05-14T04:16:44.491Z,8.27
2023-05-14T04:19:12.729Z,8.40
2023-05-14T04:21:40.957Z,7.90
2023-05-14T04:24:09.440Z,8.53
2023-05-14T04:26:37.589Z,7.50
2023-05-14T04:29:05.795Z,6.90
2023-05-14T04:31:34.018Z,6.50
2023-05-14T04:34:03.559Z,6.43
2023-05-14T04:36:31.688Z,6.10
2023-05-14T04:38:59.860Z,6.00
2023-05-14T04:41:28.027Z,6.30
2023-05-14T04:43:57.457Z,5.63
2023-05-14T04:46:25.703Z,5.40
2023-05-14T04:48:53.880Z,6.40
2023-05-14T04:51:23.381Z,6.07
2023-05-14T04:53:51.564Z,6.20
2023-05-14T04:56:19.701Z,6.03
2023-05-14T04:58:47.841Z,6.00
2023-05-14T05:01:16.116Z,6.00
2023-05-14T05:03:44.307Z,6.00
2023-05-14T05:06:12.503Z,5.60
2023-05-14T05:08:41.986Z,6.10
2023-05-14T05:11:10.252Z,6.27
2023-05-14T05:13:38.418Z,6.03
2023-05-14T05:16:07.033Z,6.00
2023-05-14T05:18:35.282Z,6.23
2023-05-14T05:21:03.487Z,6.07
2023-05-14T05:23:31.631Z,6.13
2023-05-14T05:26:01.141Z,6.23
2023-05-14T05:28:29.289Z,6.70
2023-05-14T05:30:57.523Z,8.47
2023-05-14T05:33:25.752Z,8.73
2023-05-14T05:35:53.937Z,7.43
2023-05-14T05:38:22.115Z,7.97
2023-05-14T05:40:50.269Z,8.80
2023-05-14T05:43:19.979Z,8.83
2023-05-14T05:45:48.121Z,8.77
2023-05-14T05:48:16.501Z,9.17
2023-05-14T05:50:47.460Z,10.00
2023-05-14T05:53:16.502Z,10.10
2023-05-14T05:55:44.703Z,8.67
2023-05-14T05:58:15.674Z,8.60
2023-05-14T06:00:45.351Z,8.70
2023-05-14T06:03:13.577Z,9.03
2023-05-14T06:05:41.945Z,8.43
2023-05-14T06:08:10.216Z,7.37
2023-05-14T06:10:38.412Z,6.27
2023-05-14T06:13:06.829Z,6.63
2023-05-14T06:15:35.015Z,5.83
2023-05-14T06:18:04.642Z,5.97
2023-05-14T06:20:32.813Z,6.90
2023-05-14T06:23:00.946Z,6.55
2023-05-14T06:25:29.160Z,6.20
2023-05-14T06:27:57.324Z,6.57
2023-05-14T06:30:25.747Z,6.60
2023-05-14T06:32:54.562Z,7.30
2023-05-14T06:35:25.259Z,7.07
2023-05-14T06:37:53.457Z,6.75
2023-05-14T06:40:21.926Z,7.32
2023-05-14T06:42:50.425Z,6.40
2023-05-14T06:45:18.579Z,6.70
2023-05-14T06:47:46.845Z,7.32
2023-05-14T06:50:15.022Z,7.35
2023-05-14T06:52:45.081Z,6.50
2023-05-14T06:55:13.314Z,7.63
2023-05-14T06:57:41.479Z,8.93
2023-05-14T07:00:10.236Z,9.18
2023-05-14T07:02:38.406Z,10.57
2023-05-14T07:05:07.037Z,11.30
2023-05-14T07:07:35.230Z,11.37
2023-05-14T07:10:04.924Z,11.50
2023-05-14T07:12:33.102Z,12.13
2023-05-14T07:15:01.254Z,12.43
2023-05-14T07:17:29.630Z,12.77
2023-05-14T07:19:57.839Z,12.67
2023-05-14T07:22:25.992Z,12.70
2023-05-14T07:24:54.147Z,12.97
2023-05-14T07:27:23.652Z,13.63
2023-05-14T07:29:51.947Z,14.60
2023-05-14T07:32:20.149Z,15.60
2023-05-14T07:34:48.786Z,15.23
2023-05-14T07:37:16.999Z,14.97
2023-05-14T07:39:45.222Z,15.23
2023-05-14T07:42:21.919Z,14.63
2023-05-14T07:44:57.957Z,17.03
2023-05-14T07:47:26.278Z,16.60
2023-05-14T07:49:56.176Z,17.27
2023-05-14T07:52:24.394Z,18.13
2023-05-14T07:54:52.916Z,18.83
2023-05-14T07:57:22.020Z,19.07
2023-05-14T07:59:50.881Z,19.37
2023-05-14T08:02:20.592Z,19.23
2023-05-14T08:04:48.923Z,19.30
2023-05-14T08:07:17.246Z,20.50
2023-05-14T08:09:45.412Z,20.83
2023-05-14T08:12:13.606Z,20.20
2023-05-14T08:14:42.280Z,20.57
2023-05-14T08:17:10.498Z,23.27
2023-05-14T08:19:40.150Z,22.27
2023-05-14T08:22:08.387Z,21.97
2023-05-14T08:24:36.766Z,22.10
2023-05-14T08:27:05.033Z,22.00
2023-05-14T08:29:33.163Z,22.57
2023-05-14T08:32:08.486Z,22.60
2023-05-14T08:34:45.428Z,23.43
2023-05-14T08:37:13.571Z,24.37
2023-05-14T08:39:41.827Z,25.03
2023-05-14T08:42:12.523Z,23.53
2023-05-14T08:44:45.541Z,23.37
2023-05-14T08:47:14.432Z,24.47
2023-05-14T08:49:43.345Z,23.80
2023-05-14T08:52:13.039Z,25.37
2023-05-14T08:54:41.544Z,26.10
2023-05-14T08:57:10.957Z,25.60
2023-05-14T08:59:39.306Z,24.17
2023-05-14T09:02:08.492Z,25.53
2023-05-14T09:04:37.965Z,25.43
2023-05-14T09:07:07.430Z,24.17
2023-05-14T09:09:37.036Z,24.77
2023-05-14T09:12:05.484Z,24.20
2023-05-14T09:14:34.723Z,23.97
2023-05-14T09:17:03.163Z,24.70
2023-05-14T09:19:31.384Z,25.20
2023-05-14T09:22:00.203Z,25.23
2023-05-14T09:24:29.494Z,24.70
2023-05-14T09:26:59.589Z,24.90
2023-05-14T09:29:27.833Z,26.13
2023-05-14T09:31:56.647Z,26.33
2023-05-14T09:34:28.314Z,26.70
2023-05-14T09:36:58.140Z,27.70
2023-05-14T09:39:26.662Z,24.90
2023-05-14T09:41:55.827Z,27.20
2023-05-14T09:44:25.809Z,26.17
2023-05-14T09:46:54.293Z,26.20
2023-05-14T09:49:22.879Z,25.90
2023-05-14T09:51:55.288Z,27.27
2023-05-14T09:54:23.604Z,27.57
2023-05-14T09:56:52.586Z,27.77
2023-05-14T09:59:22.045Z,28.97
2023-05-14T10:01:52.248Z,27.27
2023-05-14T10:04:20.944Z,27.57
2023-05-14T10:06:51.181Z,29.37
2023-05-14T10:09:23.070Z,28.17
2023-05-14T10:11:54.615Z,27.73
2023-05-14T10:14:26.680Z,30.03
2023-05-14T10:16:57.860Z,29.87
2023-05-14T10:19:26.594Z,27.73
2023-05-14T10:21:55.575Z,27.90
2023-05-14T10:24:23.915Z,27.73
2023-05-14T10:26:52.093Z,28.00
2023-05-14T10:29:20.715Z,27.10
2023-05-14T10:31:50.042Z,28.67
2023-05-14T10:34:37.520Z,30.23
2023-05-14T10:37:06.663Z,29.10
2023-05-14T10:39:48.127Z,26.67
2023-05-14T10:42:18.572Z,26.10
2023-05-14T10:44:55.466Z,28.33
2023-05-14T10:47:24.062Z,30.70
2023-05-14T10:49:55.420Z,29.30
2023-05-14T10:52:24.254Z,28.43
2023-05-14T10:54:52.995Z,28.80
2023-05-14T10:57:21.506Z,28.67
2023-05-14T10:59:53.079Z,28.40
2023-05-14T11:02:22.716Z,26.60
2023-05-14T11:04:56.285Z,29.10
2023-05-14T11:07:25.704Z,30.00
2023-05-14T11:09:54.047Z,29.80
2023-05-14T11:12:22.941Z,27.33
2023-05-14T11:14:52.217Z,26.43
2023-05-14T11:17:21.244Z,28.07
2023-05-14T11:19:51.171Z,24.67
2023-05-14T11:22:21.130Z,27.30
2023-05-14T11:24:49.369Z,27.10
2023-05-14T11:27:19.000Z,26.63
2023-05-14T11:29:47.630Z,22.90
2023-05-14T11:32:16.423Z,25.27
2023-05-14T11:34:45.646Z,23.27
2023-05-14T11:37:14.413Z,25.60
2023-05-14T11:39:49.886Z,23.37
2023-05-14T11:42:19.700Z,21.30
2023-05-14T11:44:48.998Z,18.97
2023-05-14T11:47:17.635Z,23.53
2023-05-14T11:49:45.881Z,22.27
2023-05-14T11:52:20.741Z,23.67
2023-05-14T11:54:50.730Z,23.77
2023-05-14T11:57:19.793Z,24.07
2023-05-14T11:59:50.027Z,23.37
2023-05-14T12:02:19.279Z,22.90
2023-05-14T12:04:51.848Z,21.53
2023-05-14T12:07:20.055Z,21.40
2023-05-14T12:09:50.657Z,19.10
2023-05-14T12:12:20.339Z,16.40
2023-05-14T12:14:48.778Z,14.97
2023-05-14T12:17:17.595Z,15.23
2023-05-14T12:19:46.409Z,17.17
2023-05-14T12:22:16.045Z,16.73
2023-05-14T12:24:45.129Z,16.70
2023-05-14T12:27:14.655Z,17.77
2023-05-14T12:29:44.871Z,17.17
2023-05-14T12:32:13.055Z,15.67
2023-05-14T12:34:41.247Z,13.97
2023-05-14T12:37:09.429Z,13.67
2023-05-14T12:39:37.637Z,15.37
2023-05-14T12:42:05.840Z,15.57
2023-05-14T12:44:35.335Z,15.10
2023-05-14T12:47:03.755Z,16.87
2023-05-14T12:49:32.104Z,12.03
2023-05-14T12:52:17.366Z,9.40
2023-05-14T12:54:48.396Z,12.47
2023-05-14T12:57:16.566Z,14.03
2023-05-14T12:59:46.118Z,14.17
2023-05-14T13:02:17.286Z,11.50
2023-05-14T13:04:45.644Z,9.77
2023-05-14T13:07:13.803Z,8.07
2023-05-14T13:09:42.007Z,15.37
2023-05-14T13:12:10.551Z,10.80
2023-05-14T13:14:38.738Z,9.90
2023-05-14T13:17:08.493Z,9.93
2023-05-14T13:19:36.734Z,8.83
2023-05-14T13:22:04.983Z,8.80
2023-05-14T13:24:33.147Z,11.27
2023-05-14T13:27:01.675Z,11.43
2023-05-14T13:29:31.515Z,9.20
2023-05-14T13:31:59.712Z,11.50
2023-05-14T13:34:29.252Z,11.10
2023-05-14T13:36:57.893Z,10.30
2023-05-14T13:39:27.206Z,10.40
2023-05-14T13:41:56.689Z,11.00
2023-05-14T13:44:25.050Z,10.53
2023-05-14T13:46:53.457Z,9.70
2023-05-14T13:49:21.757Z,8.80
2023-05-14T13:51:51.285Z,8.97
2023-05-14T13:54:19.596Z,9.90
2023-05-14T13:56:47.963Z,9.43
2023-05-14T13:59:16.186Z,9.13
2023-05-14T14:01:44.371Z,10.03
2023-05-14T14:04:12.551Z,10.37
2023-05-14T14:06:40.947Z,9.50
2023-05-14T14:09:10.819Z,9.53
2023-05-14T14:11:38.998Z,8.83
2023-05-14T14:14:07.191Z,9.53
2023-05-14T14:16:36.112Z,8.13
2023-05-14T14:19:04.524Z,8.00
2023-05-14T14:21:32.948Z,7.67
2023-05-14T14:24:01.245Z,6.83
2023-05-14T14:26:30.793Z,6.40
2023-05-14T14:28:59.243Z,5.90
2023-05-14T14:31:27.481Z,5.47
2023-05-14T14:33:55.689Z,5.33
2023-05-14T14:36:23.849Z,4.47
2023-05-14T14:38:51.996Z,6.30
2023-05-14T14:41:20.518Z,5.43
2023-05-14T14:43:50.061Z,5.93
2023-05-14T14:46:18.359Z,6.50
2023-05-14T14:48:46.595Z,5.50
2023-05-14T14:51:14.795Z,5.03
2023-05-14T14:53:42.990Z,4.40
2023-05-14T14:56:11.154Z,4.33
2023-05-14T14:58:39.376Z,4.57
2023-05-14T15:01:08.948Z,4.63
2023-05-14T15:03:37.259Z,4.80
2023-05-14T15:06:05.939Z,5.07
2023-05-14T15:08:35.336Z,5.33
2023-05-14T15:11:04.871Z,5.63
2023-05-14T15:13:33.121Z,5.83
2023-05-14T15:16:01.364Z,5.70
2023-05-14T15:18:30.941Z,6.83
2023-05-14T15:20:59.175Z,5.40
2023-05-14T15:23:27.368Z,5.40
2023-05-14T15:25:55.758Z,5.37
2023-05-14T15:28:23.909Z,5.60
2023-05-14T15:30:52.108Z,5.33
2023-05-14T15:33:20.585Z,5.80
2023-05-14T15:35:50.124Z,5.00
2023-05-14T15:38:18.413Z,6.20
2023-05-14T15:40:46.684Z,6.20
2023-05-14T15:43:14.849Z,5.50
2023-05-14T15:45:43.068Z,7.83
2023-05-14T15:48:11.336Z,7.33
2023-05-14T15:50:39.562Z,7.03
2023-05-14T15:53:09.304Z,6.63
2023-05-14T15:55:37.554Z,7.00
2023-05-14T15:58:06.214Z,7.07
2023-05-14T16:00:34.369Z,6.97
2023-05-14T16:03:02.654Z,7.50
2023-05-14T16:05:31.117Z,6.43
2023-05-14T16:08:00.132Z,7.00
2023-05-14T16:10:29.642Z,6.80
2023-05-14T16:12:57.792Z,6.43
2023-05-14T16:15:25.957Z,6.37
2023-05-14T16:17:54.155Z,6.33
2023-05-14T16:20:23.191Z,5.77
2023-05-14T16:22:51.582Z,6.17
2023-05-14T16:25:19.752Z,6.03
2023-05-14T16:27:49.301Z,6.67
2023-05-14T16:30:17.531Z,5.63
2023-05-14T16:32:48.462Z,6.17
2023-05-14T16:35:16.835Z,5.43
2023-05-14T16:37:45.035Z,5.30
2023-05-14T16:40:13.997Z,6.23
2023-05-14T16:42:42.171Z,6.00
2023-05-14T16:45:12.557Z,5.97
2023-05-14T16:47:41.364Z,6.00
2023-05-14T16:50:09.845Z,5.60
2023-05-14T16:52:38.004Z,5.07
2023-05-14T16:55:06.561Z,4.27
2023-05-14T16:57:35.245Z,4.30
2023-05-14T17:00:06.125Z,3.83
2023-05-14T17:02:35.958Z,4.00
2023-05-14T17:05:04.524Z,3.83
2023-05-14T17:07:32.741Z,4.00
2023-05-14T17:10:01.240Z,4.03
2023-05-14T17:12:31.910Z,3.83
2023-05-14T17:15:02.974Z,3.60
2023-05-14T17:17:33.755Z,3.40
2023-05-14T17:20:05.857Z,3.67
2023-05-14T17:22:34.199Z,4.20
2023-05-14T17:25:02.388Z,6.07
2023-05-14T17:27:33.124Z,7.33
2023-05-14T17:30:01.430Z,8.63
2023-05-14T17:32:31.080Z,7.80
2023-05-14T17:34:59.677Z,7.90
2023-05-14T17:37:29.273Z,8.07
2023-05-14T17:39:57.673Z,7.90
2023-05-14T17:42:26.109Z,7.40
2023-05-14T17:44:54.741Z,8.20
2023-05-14T17:47:23.174Z,7.33
2023-05-14T17:49:54.146Z,9.03
2023-05-14T17:52:25.321Z,8.93
2023-05-14T17:54:54.857Z,7.70
2023-05-14T17:57:23.581Z,7.37
2023-05-14T17:59:51.773Z,7.50
2023-05-14T18:02:19.970Z,7.73
2023-05-14T18:04:48.153Z,7.70
2023-05-14T18:07:16.339Z,7.57
2023-05-14T18:09:44.510Z,7.47
2023-05-14T18:12:14.026Z,7.47
2023-05-14T18:14:44.787Z,7.63
2023-05-14T18:17:13.699Z,7.67
2023-05-14T18:19:41.901Z,7.80
2023-05-14T18:22:10.130Z,7.17
2023-05-14T18:24:38.293Z,7.13
2023-05-14T18:27:06.685Z,7.60
2023-05-14T18:29:36.192Z,6.93
2023-05-14T18:32:04.394Z,7.13
2023-05-14T18:34:32.564Z,7.20
2023-05-14T18:37:00.982Z,7.40
2023-05-14T18:39:29.117Z,7.37
2023-05-14T18:41:58.399Z,7.70
2023-05-14T18:44:26.575Z,7.40
2023-05-14T18:46:56.247Z,7.40
2023-05-14T18:49:24.390Z,8.03
2023-05-14T18:51:52.591Z,7.80
2023-05-14T18:54:20.765Z,8.70
2023-05-14T18:56:48.961Z,8.10
2023-05-14T18:59:17.129Z,7.97
2023-05-14T19:01:45.707Z,8.23
2023-05-14T19:04:15.736Z,7.80
2023-05-14T19:06:43.965Z,7.87
2023-05-14T19:09:12.170Z,7.53
2023-05-14T19:11:40.312Z,8.13
2023-05-14T19:14:09.296Z,7.60
2023-05-14T19:16:37.520Z,7.07
2023-05-14T19:19:05.774Z,8.27
2023-05-14T19:21:35.606Z,8.03
2023-05-14T19:24:03.811Z,8.27
2023-05-14T19:26:32.034Z,8.00
2023-05-14T19:29:00.218Z,8.80
2023-05-14T19:31:28.860Z,9.13
2023-05-14T19:33:57.057Z,8.97
2023-05-14T19:36:25.299Z,9.00
2023-05-14T19:38:54.797Z,9.40
2023-05-14T19:41:23.034Z,9.20
2023-05-14T19:43:51.195Z,8.97
2023-05-14T19:46:19.454Z,9.43
2023-05-14T19:48:48.425Z,9.50
2023-05-14T19:51:16.610Z,9.43
2023-05-14T19:53:45.154Z,9.43
2023-05-14T19:56:15.382Z,9.17
2023-05-14T19:58:44.116Z,9.97
2023-05-14T20:01:12.629Z,9.07
2023-05-14T20:03:40.947Z,9.13
2023-05-14T20:06:09.115Z,10.20
2023-05-14T20:08:37.301Z,9.37
2023-05-14T20:11:05.554Z,8.63
2023-05-14T20:13:36.413Z,8.93
2023-05-14T20:16:04.638Z,8.37
2023-05-14T20:18:32.934Z,8.30
2023-05-14T20:21:01.293Z,8.47
2023-05-14T20:23:29.457Z,8.43
2023-05-14T20:25:57.650Z,8.07
2023-05-14T20:28:25.889Z,8.53
2023-05-14T20:30:55.625Z,7.83
2023-05-14T20:33:24.230Z,7.87
2023-05-14T20:35:52.470Z,8.20
2023-05-14T20:38:21.655Z,8.07
2023-05-14T20:40:49.821Z,7.57
2023-05-14T20:43:18.192Z,8.73
2023-05-14T20:45:46.394Z,8.00
2023-05-14T20:48:17.505Z,7.53
2023-05-14T20:50:46.232Z,7.43
2023-05-14T20:53:14.389Z,8.17
2023-05-14T20:55:42.564Z,8.07
2023-05-14T20:58:10.729Z,8.30
2023-05-14T21:00:39.133Z,7.70
2023-05-14T21:03:07.438Z,8.13
2023-05-14T21:05:37.032Z,7.53
2023-05-14T21:08:05.228Z,7.80
2023-05-14T21:10:33.396Z,8.57
2023-05-14T21:13:01.529Z,7.87
2023-05-14T21:15:30.608Z,7.63
2023-05-14T21:17:58.786Z,7.70
2023-05-14T21:20:26.966Z,8.53
2023-05-14T21:22:56.484Z,8.83
2023-05-14T21:25:24.861Z,8.80
2023-05-14T21:27:53.303Z,9.10
2023-05-14T21:30:21.567Z,8.87
2023-05-14T21:32:49.725Z,9.20
2023-05-14T21:35:18.015Z,9.07
2023-05-14T21:37:46.194Z,9.60
2023-05-14T21:40:16.222Z,10.67
2023-05-14T21:42:44.442Z,9.83
2023-05-14T21:45:12.831Z,9.87
2023-05-14T21:47:41.292Z,9.60
2023-05-14T21:50:09.845Z,10.90
2023-05-14T21:52:38.825Z,10.07
2023-05-14T21:55:07.422Z,10.43
2023-05-14T21:57:36.951Z,11.57
2023-05-14T22:00:07.789Z,11.40
2023-05-14T22:02:36.092Z,11.37
2023-05-14T22:05:05.203Z,10.93
2023-05-14T22:07:33.780Z,11.90
2023-05-14T22:10:02.168Z,12.30
2023-05-14T22:12:30.319Z,12.33
2023-05-14T22:14:59.885Z,11.87
2023-05-14T22:17:28.773Z,12.40
2023-05-14T22:19:56.997Z,13.50
2023-05-14T22:22:25.164Z,13.60
2023-05-14T22:24:53.373Z,14.50
2023-05-14T22:27:21.576Z,14.33
2023-05-14T22:29:49.741Z,16.13
2023-05-14T22:32:19.255Z,15.40
2023-05-14T22:34:47.459Z,15.47
2023-05-14T22:37:15.630Z,16.50
2023-05-14T22:39:43.810Z,16.07
2023-05-14T22:42:12.054Z,16.10
2023-05-14T22:44:40.302Z,16.20
2023-05-14T22:47:08.520Z,16.17
2023-05-14T22:49:38.027Z,17.10
2023-05-14T22:52:06.474Z,16.47
2023-05-14T22:54:34.634Z,16.33
2023-05-14T22:57:03.193Z,17.23
2023-05-14T22:59:31.360Z,16.93
2023-05-14T23:01:59.605Z,19.33
2023-05-14T23:04:27.893Z,17.37
2023-05-14T23:06:57.450Z,18.13
2023-05-14T23:09:25.658Z,16.53
2023-05-14T23:11:53.983Z,17.80
2023-05-14T23:14:22.591Z,18.37
2023-05-14T23:16:50.894Z,19.40
2023-05-14T23:19:19.952Z,18.67
2023-05-14T23:21:48.129Z,19.50
2023-05-14T23:24:17.621Z,22.17
2023-05-14T23:26:45.914Z,20.67
2023-05-14T23:29:14.067Z,22.00
2023-05-14T23:31:43.569Z,22.00
2023-05-14T23:34:11.934Z,21.93
2023-05-14T23:36:40.444Z,22.70
2023-05-14T23:39:08.643Z,24.10
2023-05-14T23:41:38.193Z,25.30
2023-05-14T23:44:07.205Z,24.57
2023-05-14T23:46:35.432Z,26.30
2023-05-14T23:49:03.603Z,24.80
2023-05-14T23:51:31.772Z,25.17
2023-05-14T23:53:59.945Z,25.40
2023-05-14T23:56:29.022Z,23.47
2023-05-14T23:58:58.726Z,26.13
